Flight Track Log - Related Links

Times and Time Zones

All times are in EDT time to prevent confusion due to time zone crossing. See the UCA4838 flight status page for this flight to view local times or setup timezone preferences in your user account.

Time Position Orientation Groundspeed Altitude Reporting Facility
EDT Latitude Longitude Course Direction KTS MPH feet Rate Location/Type
Sat 06:10:02 AM 43.1014 -77.6914 159° South 106 122 1,200  Level Cleveland Center
Sat 06:11:03 AM 43.0614 -77.6706 159° South 184 212 2,500 1,289 Climbing Cleveland Center
Sat 06:12:03 AM 43.0431 -77.6031 110° East 186 214 3,800 1,176 Climbing Cleveland Center
Sat 06:12:45 AM 43.0294 -77.5669 117° Southeast 185 213 4,500 1,059 Climbing Cleveland Center
Sat 06:13:45 AM 43.0047 -77.5000 117° Southeast 206 237 5,600 1,150 Climbing Cleveland Center
Sat 06:14:45 AM 42.9800 -77.4331 117° Southeast 211 243 6,800 700 Climbing Cleveland Center
Sat 06:15:45 AM 42.9531 -77.3578 116° Southeast 211 243 7,000 100 Climbing Cleveland Center
Sat 06:16:45 AM 42.9214 -77.2686 116° Southeast 231 266 7,000 600 Level Cleveland Center
Sat 06:17:45 AM 42.8875 -77.1825 118° Southeast 249 287 8,200 1,200 Climbing Cleveland Center
Sat 06:18:45 AM 42.8600 -77.1019 115° Southeast 249 287 9,400 1,000 Climbing Cleveland Center
Sat 06:20:33 AM 42.8075 -76.9528 116° Southeast 245 282 11,000 1,006 Climbing New York Center
Sat 06:21:32 AM 42.7736 -76.8819 123° Southeast 239 275 12,200 1,107 Climbing New York Center
Sat 06:22:16 AM 42.7511 -76.8319 121° Southeast 228 262 12,900 462 Climbing Boston Center
Sat 06:23:16 AM 42.7167 -76.7531 121° Southeast 228 262 13,000 50 Climbing Boston Center
Sat 06:24:16 AM 42.6819 -76.6800 123° Southeast 242 278 13,000 -50 Level Boston Center
Sat 06:25:16 AM 42.6394 -76.5867 122° Southeast 267 307 12,900 -49 Descending Boston Center
Sat 06:26:18 AM 42.5992 -76.4908 120° Southeast 280 322 12,900  Level Boston Center
Sat 06:27:17 AM 42.5544 -76.3950 122° Southeast 292 336 12,900  Level Boston Center
Sat 06:28:16 AM 42.5119 -76.2992 121° Southeast 292 336 12,900  Level Boston Center
Sat 06:29:19 AM 42.4656 -76.1922 120° Southeast 303 349 12,900  Level Boston Center
Sat 06:30:16 AM 42.4228 -76.0969 121° Southeast 297 342 12,900  Level Boston Center
Sat 06:31:16 AM 42.3797 -76.0044 122° Southeast 304 350 12,900  Level Boston Center
Sat 06:32:17 AM 42.3350 -75.9033 121° Southeast 297 342 12,900  Level Boston Center
Sat 06:33:17 AM 42.2917 -75.8167 124° Southeast 297 342 12,900  Level Boston Center
Sat 06:34:17 AM 42.2489 -75.7133 119° Southeast 297 342 12,900  Level Boston Center
Sat 06:35:18 AM 42.2056 -75.6214 122° Southeast 297 342 12,900  Level Boston Center
Sat 06:36:16 AM 42.1603 -75.5267 123° Southeast 297 342 12,900 51 Level Boston Center
Sat 06:37:16 AM 42.1192 -75.4294 120° Southeast 297 342 13,000 50 Climbing Boston Center
Sat 06:38:16 AM 42.0736 -75.3378 124° Southeast 297 342 13,000  Level Boston Center
Sat 06:39:16 AM 42.0364 -75.2383 117° Southeast 297 342 13,000  Level Boston Center
Sat 06:40:18 AM 41.9994 -75.1389 117° Southeast 297 342 13,000  Level Boston Center
Sat 06:41:16 AM 41.9617 -75.0506 120° Southeast 297 342 13,000  Level Boston Center
Sat 06:42:18 AM 41.9206 -74.9428 117° Southeast 297 342 13,000  Level Boston Center
Sat 06:43:18 AM 41.8869 -74.8550 117° Southeast 297 342 13,000 -645 Level Boston Center
Sat 06:44:19 AM 41.8156 -74.7744 140° Southeast 291 335 11,700 -1,250 Descending Boston Center
Sat 06:45:18 AM 41.7567 -74.7083 140° Southeast 307 353 10,500 -1,322 Descending Boston Center
Sat 06:46:17 AM 41.6872 -74.6250 138° Southeast 312 359 9,100 -1,271 Descending Boston Center
Sat 06:47:16 AM 41.6261 -74.5647 144° Southeast 307 353 8,000 -1,100 Descending Boston Center
Sat 06:48:17 AM 41.5444 -74.5703 183° South 273 314 6,900 -984 Descending Boston Center
Sat 06:49:18 AM 41.4797 -74.5792 186° South 265 305 6,000 -322 Descending Boston Center
Sat 06:50:46 AM 41.3667 -74.5833 182° South 259 298 6,100 41 Climbing New York TRACON
Sat 06:51:46 AM 41.3000 -74.5500 159° South 263 303 6,100  Level New York TRACON
Sat 06:52:40 AM 41.2333 -74.5333 169° South 261 300 6,100  Level New York TRACON
Sat 06:53:46 AM 41.1500 -74.5167 171° South 259 298 6,100  Level New York TRACON
Sat 06:54:46 AM 41.0833 -74.5000 169° South 254 292 6,100  Level New York TRACON
Sat 06:55:40 AM 41.0167 -74.5000 180° South 254 292 6,100  Level New York TRACON
Sat 06:56:46 AM 40.9500 -74.5000 180° South 249 287 6,100  Level New York TRACON
Sat 06:57:46 AM 40.8667 -74.5000 180° South 250 288 6,100  Level New York TRACON
Sat 06:58:46 AM 40.8000 -74.5000 180° South 249 287 6,100  Level New York TRACON
Sat 06:59:46 AM 40.7333 -74.4667 159° South 258 297 6,100 -350 Level New York TRACON
Sat 07:00:46 AM 40.6667 -74.4333 159° South 261 300 5,400 -900 Descending New York TRACON
Sat 07:01:46 AM 40.6000 -74.4000 159° South 260 299 4,300 -900 Descending New York TRACON
Sat 07:02:46 AM 40.5500 -74.3500 143° Southeast 220 253 3,600 -800 Descending New York TRACON
Sat 07:03:46 AM 40.5500 -74.2833 90° East 203 234 2,700 -650 Descending New York TRACON
Sat 07:04:46 AM 40.5833 -74.2333 49° Northeast 166 191 2,300 -650 Descending New York TRACON
Sat 07:05:46 AM 40.6167 -74.2167 21° North 172 198 1,400 -800 Descending New York TRACON
Sat 07:06:46 AM 40.6500 -74.1833 37° Northeast 125 144 700 -700 Descending New York TRACON
Sat 07:08:00 AM 40.6833 -74.1667 85° East  Level FlightAware Approximate
Sat 07:15:00 AM 40.6925 -74.1687 85° East  Level Estimated

Login

Don't have an account? Register now (free) for customized features, flight alerts, and more!